sensor_id;sensor_type;location;lat;lon;timestamp;P1;durP1;ratioP1;P2;durP2;ratioP2
77417;SDS011;66490;51.484;0.026;2024-02-04T07:28:45;1.95;;;0.93;;
77417;SDS011;66490;51.484;0.026;2024-02-04T07:37:59;2.75;;;1.15;;
77417;SDS011;66490;51.484;0.026;2024-02-04T07:40:51;1.50;;;0.60;;
77417;SDS011;66490;51.484;0.026;2024-02-04T07:43:43;2.08;;;0.80;;
77417;SDS011;66490;51.484;0.026;2024-02-04T07:46:38;2.13;;;0.70;;
77417;SDS011;66490;51.484;0.026;2024-02-04T07:49:22;2.55;;;0.57;;
77417;SDS011;66490;51.484;0.026;2024-02-04T07:52:09;1.77;;;0.90;;
77417;SDS011;66490;51.484;0.026;2024-02-04T07:54:53;1.88;;;1.13;;
77417;SDS011;66490;51.484;0.026;2024-02-04T07:57:40;2.05;;;1.40;;
77417;SDS011;66490;51.484;0.026;2024-02-04T08:00:24;3.30;;;1.00;;
77417;SDS011;66490;51.484;0.026;2024-02-04T08:03:12;1.50;;;1.00;;
77417;SDS011;66490;51.484;0.026;2024-02-04T08:05:56;3.00;;;0.47;;
77417;SDS011;66490;51.484;0.026;2024-02-04T08:08:42;1.88;;;0.88;;
77417;SDS011;66490;51.484;0.026;2024-02-04T08:11:28;2.58;;;1.40;;
77417;SDS011;66490;51.484;0.026;2024-02-04T08:14:21;2.27;;;1.00;;
77417;SDS011;66490;51.484;0.026;2024-02-04T08:17:12;2.67;;;0.57;;
77417;SDS011;66490;51.484;0.026;2024-02-04T08:19:59;2.08;;;0.80;;
77417;SDS011;66490;51.484;0.026;2024-02-04T08:22:43;2.45;;;0.90;;
77417;SDS011;66490;51.484;0.026;2024-02-04T08:25:27;4.30;;;0.70;;
77417;SDS011;66490;51.484;0.026;2024-02-04T08:28:12;3.37;;;1.10;;
77417;SDS011;66490;51.484;0.026;2024-02-04T08:31:07;2.25;;;0.85;;
77417;SDS011;66490;51.484;0.026;2024-02-04T08:34:14;2.45;;;1.10;;
77417;SDS011;66490;51.484;0.026;2024-02-04T08:37:09;2.95;;;1.20;;
77417;SDS011;66490;51.484;0.026;2024-02-04T08:40:00;3.47;;;0.70;;
77417;SDS011;66490;51.484;0.026;2024-02-04T08:46:24;1.77;;;0.98;;
77417;SDS011;66490;51.484;0.026;2024-02-04T08:55:09;1.70;;;0.88;;
77417;SDS011;66490;51.484;0.026;2024-02-04T09:07:12;2.33;;;0.80;;
77417;SDS011;66490;51.484;0.026;2024-02-04T09:09:57;3.38;;;0.50;;
77417;SDS011;66490;51.484;0.026;2024-02-04T09:12:47;2.37;;;0.93;;
77417;SDS011;66490;51.484;0.026;2024-02-04T09:15:34;1.40;;;0.80;;
77417;SDS011;66490;51.484;0.026;2024-02-04T09:18:19;3.75;;;1.15;;
77417;SDS011;66490;51.484;0.026;2024-02-04T09:21:06;2.45;;;1.02;;
77417;SDS011;66490;51.484;0.026;2024-02-04T09:35:08;3.45;;;0.88;;
77417;SDS011;66490;51.484;0.026;2024-02-04T09:37:59;2.50;;;0.60;;
77417;SDS011;66490;51.484;0.026;2024-02-04T09:40:46;2.47;;;1.10;;
77417;SDS011;66490;51.484;0.026;2024-02-04T09:43:39;1.73;;;0.80;;
77417;SDS011;66490;51.484;0.026;2024-02-04T09:46:26;2.47;;;0.70;;
77417;SDS011;66490;51.484;0.026;2024-02-04T09:49:31;1.80;;;0.73;;
77417;SDS011;66490;51.484;0.026;2024-02-04T09:52:21;1.98;;;0.60;;
77417;SDS011;66490;51.484;0.026;2024-02-04T09:58:28;1.30;;;0.50;;
77417;SDS011;66490;51.484;0.026;2024-02-04T10:01:16;1.80;;;0.73;;
77417;SDS011;66490;51.484;0.026;2024-02-04T10:04:07;2.10;;;0.93;;
77417;SDS011;66490;51.484;0.026;2024-02-04T10:07:14;2.08;;;0.70;;
77417;SDS011;66490;51.484;0.026;2024-02-04T10:10:04;1.53;;;0.70;;
77417;SDS011;66490;51.484;0.026;2024-02-04T10:12:55;1.70;;;0.73;;
77417;SDS011;66490;51.484;0.026;2024-02-04T10:15:39;2.88;;;0.80;;
77417;SDS011;66490;51.484;0.026;2024-02-04T14:05:47;2.47;;;0.80;;
77417;SDS011;66490;51.484;0.026;2024-02-04T14:08:35;1.80;;;0.60;;
77417;SDS011;66490;51.484;0.026;2024-02-04T14:11:27;1.38;;;0.68;;
77417;SDS011;66490;51.484;0.026;2024-02-04T14:14:11;1.17;;;0.52;;
77417;SDS011;66490;51.484;0.026;2024-02-04T14:16:58;1.37;;;0.33;;
77417;SDS011;66490;51.484;0.026;2024-02-04T14:20:03;1.60;;;0.40;;
77417;SDS011;66490;51.484;0.026;2024-02-04T14:23:11;2.17;;;0.60;;
77417;SDS011;66490;51.484;0.026;2024-02-04T14:29:31;2.65;;;0.82;;
77417;SDS011;66490;51.484;0.026;2024-02-04T14:32:47;1.47;;;0.77;;
77417;SDS011;66490;51.484;0.026;2024-02-04T14:35:31;1.58;;;0.90;;
77417;SDS011;66490;51.484;0.026;2024-02-04T15:57:08;4.38;;;1.10;;
77417;SDS011;66490;51.484;0.026;2024-02-04T16:00:06;2.78;;;1.00;;
77417;SDS011;66490;51.484;0.026;2024-02-04T19:29:52;22.15;;;3.38;;
77417;SDS011;66490;51.484;0.026;2024-02-04T19:57:00;21.75;;;3.22;;
77417;SDS011;66490;51.484;0.026;2024-02-04T19:59:55;19.95;;;3.80;;
77417;SDS011;66490;51.484;0.026;2024-02-04T20:28:29;18.15;;;3.45;;
77417;SDS011;66490;51.484;0.026;2024-02-04T20:40:03;18.33;;;4.10;;
77417;SDS011;66490;51.484;0.026;2024-02-04T20:50:06;23.00;;;3.75;;
77417;SDS011;66490;51.484;0.026;2024-02-04T20:56:47;21.53;;;4.53;;
77417;SDS011;66490;51.484;0.026;2024-02-04T21:10:12;23.00;;;3.78;;
77417;SDS011;66490;51.484;0.026;2024-02-04T21:27:14;22.25;;;5.30;;
77417;SDS011;66490;51.484;0.026;2024-02-04T21:30:21;21.70;;;3.50;;
